Terminal Aerodrome Forecast
Issued by NWS Cleveland, OH

Home | Current Version | Previous Version | Graphics & Text | Print | Product List | Glossary On
Versions: 1 2 3 4 5 6 7 8 9 10 11 12 13 14 15 16 17 18
000
FTUS41 KCLE 040524
TAFMFD
TAF
KMFD 040524Z 0406/0506 33002KT P6SM FEW060 SCT250
      TEMPO 0410/0413 4SM BR
     FM041300 33006KT P6SM FEW045
     FM050100 VRB02KT P6SM SKC=

USA.gov is the U.S. government's official web portal to all federal, state and local government web resources and services.